createdAt,value
2023-02-06T00:01:15.649Z,104393.81
2023-02-06T00:03:42.079Z,104397.25
2023-02-06T00:06:08.861Z,104397.25
2023-02-06T00:08:35.509Z,104391.28
2023-02-06T00:11:07.461Z,104393.03
2023-02-06T00:13:35.408Z,104392.97
2023-02-06T00:16:02.684Z,104386.09
2023-02-06T00:18:29.277Z,104371.34
2023-02-06T00:20:55.766Z,104371.28
2023-02-06T00:23:22.868Z,104378.94
2023-02-06T00:25:49.592Z,104373.72
2023-02-06T00:28:16.146Z,104366.84
2023-02-06T00:30:46.161Z,104363.44
2023-02-06T00:33:12.924Z,104372.00
2023-02-06T00:35:39.364Z,104364.25
2023-02-06T00:38:07.050Z,104372.78
2023-02-06T00:40:33.937Z,104376.16
2023-02-06T00:43:00.760Z,104377.81
2023-02-06T00:45:27.226Z,104372.56
2023-02-06T00:47:53.742Z,104371.56
2023-02-06T00:50:20.356Z,104374.06
2023-02-06T00:52:47.563Z,104374.06
2023-02-06T00:55:14.302Z,104380.22
2023-02-06T00:57:40.889Z,104375.94
2023-02-06T01:00:08.875Z,104378.56
2023-02-06T01:02:35.496Z,104371.63
2023-02-06T01:05:02.490Z,104377.59
2023-02-06T01:07:29.155Z,104385.31
2023-02-06T01:09:55.656Z,104381.00
2023-02-06T01:12:22.285Z,104381.72
2023-02-06T01:14:49.197Z,104374.81
2023-02-06T01:17:15.826Z,104381.72
2023-02-06T01:19:42.379Z,104394.66
2023-02-06T01:22:08.874Z,104398.09
2023-02-06T01:24:36.378Z,104396.38
2023-02-06T01:27:03.372Z,104399.75
2023-02-06T01:29:29.882Z,104397.22
2023-02-06T01:31:56.691Z,104394.69
2023-02-06T01:34:23.125Z,104387.03
2023-02-06T01:36:49.671Z,104391.38
2023-02-06T01:39:16.210Z,104387.94
2023-02-06T01:41:42.788Z,104390.47
2023-02-06T01:44:24.309Z,104390.53
2023-02-06T01:46:56.162Z,104389.59
2023-02-06T01:49:38.764Z,104395.63
2023-02-06T01:52:30.432Z,104389.66
2023-02-06T01:55:01.355Z,104381.09
2023-02-06T01:57:28.973Z,104382.78
2023-02-06T02:00:01.664Z,104369.97
2023-02-06T02:02:29.362Z,104375.94
2023-02-06T02:04:58.002Z,104374.19
2023-02-06T02:07:28.745Z,104371.63
2023-02-06T02:09:55.179Z,104372.50
2023-02-06T02:12:21.831Z,104368.19
2023-02-06T02:14:51.942Z,104366.53
2023-02-06T02:17:55.897Z,104356.22
2023-02-06T02:20:34.401Z,104358.75
2023-02-06T02:23:09.909Z,104357.88
2023-02-06T02:26:01.101Z,104362.97
2023-02-06T02:28:33.692Z,104361.94
2023-02-06T02:31:30.135Z,104355.72
2023-02-06T02:34:21.226Z,104354.81
2023-02-06T02:36:57.157Z,104345.34
2023-02-06T02:39:44.574Z,104351.28
2023-02-06T02:42:16.528Z,104356.34
2023-02-06T02:44:58.448Z,104354.59
2023-02-06T02:47:31.061Z,104346.75
2023-02-06T02:50:00.835Z,104342.38
2023-02-06T02:52:28.504Z,104338.88
2023-02-06T02:54:54.972Z,104338.69
2023-02-06T02:57:28.935Z,104335.22
2023-02-06T02:59:58.471Z,104342.00
2023-02-06T03:02:31.766Z,104335.88
2023-02-06T03:05:04.240Z,104335.69
2023-02-06T03:07:35.184Z,104337.22
2023-02-06T03:10:33.857Z,104325.06
2023-02-06T03:13:16.393Z,104325.72
2023-02-06T03:15:54.934Z,104328.16
2023-02-06T03:18:43.298Z,104335.78
2023-02-06T03:21:15.316Z,104332.91
2023-02-06T03:23:45.347Z,104330.19
2023-02-06T03:26:16.054Z,104333.53
2023-02-06T03:28:47.766Z,104330.81
2023-02-06T03:31:21.596Z,104343.50
2023-02-06T03:33:55.316Z,104339.13
2023-02-06T03:36:22.056Z,104339.03
2023-02-06T03:38:50.860Z,104337.25
2023-02-06T03:41:21.345Z,104341.53
2023-02-06T03:43:49.481Z,104342.41
2023-02-06T03:46:18.206Z,104338.03
2023-02-06T03:48:50.428Z,104345.56
2023-02-06T03:51:26.185Z,104342.88
2023-02-06T03:53:55.690Z,104334.19
2023-02-06T03:56:32.309Z,104333.97
2023-02-06T03:58:58.814Z,104335.59
2023-02-06T04:01:25.946Z,104349.38
2023-02-06T04:03:52.920Z,104359.66
2023-02-06T04:06:19.655Z,104345.84
2023-02-06T04:08:46.271Z,104339.81
2023-02-06T04:11:12.732Z,104336.50
2023-02-06T04:13:39.603Z,104329.66
2023-02-06T04:16:06.151Z,104332.16
2023-02-06T04:18:32.651Z,104337.31
2023-02-06T04:21:06.835Z,104335.59
2023-02-06T04:23:33.524Z,104343.31
2023-02-06T04:26:00.219Z,104344.25
2023-02-06T04:28:26.728Z,104347.75
2023-02-06T04:30:53.724Z,104340.06
2023-02-06T04:33:20.284Z,104340.81
2023-02-06T04:35:48.086Z,104348.34
2023-02-06T04:38:15.000Z,104344.75
2023-02-06T04:40:41.765Z,104335.16
2023-02-06T04:43:08.339Z,104329.06
2023-02-06T04:45:35.344Z,104327.28
2023-02-06T04:48:02.051Z,104335.00
2023-02-06T04:50:31.446Z,104326.50
2023-02-06T04:52:58.555Z,104323.97
2023-02-06T04:55:25.096Z,104331.75
2023-02-06T04:57:51.864Z,104344.75
2023-02-06T05:00:18.409Z,104344.75
2023-02-06T05:02:44.965Z,104348.03
2023-02-06T05:05:11.606Z,104348.00
2023-02-06T05:07:38.154Z,104341.84
2023-02-06T05:10:04.931Z,104351.19
2023-02-06T05:12:31.421Z,104351.94
2023-02-06T05:14:57.925Z,104356.25
2023-02-06T05:17:24.518Z,104352.81
2023-02-06T05:19:51.010Z,104355.41
2023-02-06T05:22:17.584Z,104351.13
2023-02-06T05:24:44.089Z,104353.66
2023-02-06T05:27:10.705Z,104363.88
2023-02-06T05:29:37.165Z,104363.78
2023-02-06T05:32:03.898Z,104361.03
2023-02-06T05:34:30.600Z,104359.22
2023-02-06T05:36:57.233Z,104362.66
2023-02-06T05:39:23.839Z,104360.09
2023-02-06T05:41:50.271Z,104360.19
2023-02-06T05:44:17.000Z,104372.38
2023-02-06T05:46:44.226Z,104371.69
2023-02-06T05:49:10.822Z,104370.06
2023-02-06T05:51:37.583Z,104368.34
2023-02-06T05:54:04.262Z,104370.06
2023-02-06T05:56:31.056Z,104366.69
2023-02-06T05:58:57.943Z,104365.06
2023-02-06T06:01:24.497Z,104359.00
2023-02-06T06:03:51.026Z,104364.16
2023-02-06T06:06:17.663Z,104370.19
2023-02-06T06:08:44.170Z,104358.16
2023-02-06T06:11:10.663Z,104355.56
2023-02-06T06:13:37.147Z,104367.63
2023-02-06T06:16:03.761Z,104367.56
2023-02-06T06:18:30.405Z,104365.75
2023-02-06T06:20:56.923Z,104361.41
2023-02-06T06:23:23.361Z,104365.56
2023-02-06T06:25:50.367Z,104368.00
2023-02-06T06:28:17.026Z,104369.00
2023-02-06T06:30:43.566Z,104372.53
2023-02-06T06:33:10.327Z,104374.41
2023-02-06T06:35:37.348Z,104373.56
2023-02-06T06:38:04.000Z,104378.72
2023-02-06T06:40:30.508Z,104378.72
2023-02-06T06:42:57.040Z,104378.72
2023-02-06T06:45:23.943Z,104380.47
2023-02-06T06:47:50.422Z,104369.25
2023-02-06T06:50:17.007Z,104369.13
2023-02-06T06:52:43.553Z,104354.53
2023-02-06T06:55:10.344Z,104353.66
2023-02-06T06:57:36.698Z,104350.25
2023-02-06T07:00:04.614Z,104357.09
2023-02-06T07:02:31.061Z,104350.25
2023-02-06T07:04:57.536Z,104352.81
2023-02-06T07:07:24.032Z,104354.53
2023-02-06T07:09:50.475Z,104350.19
2023-02-06T07:12:17.174Z,104351.88
2023-02-06T07:14:43.634Z,104350.16
2023-02-06T07:17:10.006Z,104361.28
2023-02-06T07:19:36.486Z,104354.44
2023-02-06T07:22:02.878Z,104342.47
2023-02-06T07:24:29.339Z,104332.25
2023-02-06T07:26:57.720Z,104327.19
2023-02-06T07:29:24.704Z,104325.59
2023-02-06T07:31:51.169Z,104318.81
2023-02-06T07:34:17.552Z,104323.28
2023-02-06T07:36:43.974Z,104321.59
2023-02-06T07:39:10.309Z,104314.81
2023-02-06T07:41:36.706Z,104308.00
2023-02-06T07:44:03.168Z,104302.88
2023-02-06T07:46:29.600Z,104304.72
2023-02-06T07:48:56.076Z,104287.66
2023-02-06T07:51:22.922Z,104293.75
2023-02-06T07:53:49.886Z,104275.06
2023-02-06T07:56:19.149Z,104270.06
2023-02-06T07:58:50.515Z,104271.03
2023-02-06T08:01:17.030Z,104264.13
2023-02-06T08:03:43.410Z,104263.28
2023-02-06T08:06:12.116Z,104260.00
2023-02-06T08:08:38.863Z,104266.13
2023-02-06T08:11:09.853Z,104255.03
2023-02-06T08:13:36.528Z,104258.56
2023-02-06T08:16:07.938Z,104262.13
2023-02-06T08:18:34.640Z,104254.47
2023-02-06T08:21:02.790Z,104244.25
2023-02-06T08:23:29.384Z,104240.84
2023-02-06T08:26:07.857Z,104242.63
2023-02-06T08:28:35.569Z,104242.78
2023-02-06T08:31:19.169Z,104243.88
2023-02-06T08:33:46.279Z,104252.59
2023-02-06T08:36:13.516Z,104251.09
2023-02-06T08:38:40.714Z,104248.69
2023-02-06T08:41:27.225Z,104244.53
2023-02-06T08:43:56.395Z,104253.19
2023-02-06T08:46:25.117Z,104249.84
2023-02-06T08:48:56.805Z,104248.28
2023-02-06T08:51:23.301Z,104254.34
2023-02-06T08:53:49.693Z,104257.78
2023-02-06T08:56:16.116Z,104249.19
2023-02-06T08:58:42.562Z,104241.41
2023-02-06T09:01:10.989Z,104250.03
2023-02-06T09:03:37.456Z,104247.69
2023-02-06T09:06:09.941Z,104245.47
2023-02-06T09:08:38.113Z,104244.94
2023-02-06T09:11:16.246Z,104244.53
2023-02-06T09:13:44.289Z,104253.38
2023-02-06T09:16:11.850Z,104255.41
2023-02-06T09:18:38.327Z,104251.38
2023-02-06T09:21:17.628Z,104244.78
2023-02-06T09:23:46.493Z,104246.63
2023-02-06T09:26:15.383Z,104255.41
2023-02-06T09:28:41.793Z,104253.03
2023-02-06T09:31:09.074Z,104250.66
2023-02-06T09:33:37.271Z,104254.22
2023-02-06T09:36:08.868Z,104266.44
2023-02-06T09:38:36.002Z,104265.75
2023-02-06T09:41:11.534Z,104271.13
2023-02-06T09:43:38.342Z,104279.00
2023-02-06T09:46:09.044Z,104278.38
2023-02-06T09:48:39.378Z,104274.25
2023-02-06T09:51:14.675Z,104276.16
2023-02-06T09:53:57.240Z,104281.63
2023-02-06T09:56:36.425Z,104277.56
2023-02-06T09:59:14.363Z,104274.38
2023-02-06T10:01:52.476Z,104275.38
2023-02-06T10:04:34.420Z,104272.06
2023-02-06T10:07:32.612Z,104273.00
2023-02-06T10:10:09.328Z,104269.78
2023-02-06T10:12:47.072Z,104275.00
2023-02-06T10:15:45.172Z,104277.69
2023-02-06T10:18:46.189Z,104282.84
2023-02-06T10:21:23.536Z,104279.66
2023-02-06T10:24:00.560Z,104269.03
2023-02-06T10:26:28.016Z,104267.31
2023-02-06T10:28:58.048Z,104265.69
2023-02-06T10:31:24.516Z,104261.94
2023-02-06T10:34:29.841Z,104258.31
2023-02-06T10:37:15.327Z,104268.38
2023-02-06T10:40:00.424Z,104258.38
2023-02-06T10:42:58.262Z,104266.97
2023-02-06T10:45:27.694Z,104256.09
2023-02-06T10:48:01.757Z,104251.88
2023-02-06T10:50:39.386Z,104248.03
2023-02-06T10:53:26.811Z,104263.63
2023-02-06T10:55:59.376Z,104258.94
2023-02-06T10:58:33.475Z,104255.03
2023-02-06T11:01:00.844Z,104259.56
2023-02-06T11:03:31.797Z,104256.03
2023-02-06T11:05:59.501Z,104256.00
2023-02-06T11:08:30.236Z,104261.38
2023-02-06T11:10:57.345Z,104269.03
2023-02-06T11:13:28.240Z,104271.69
2023-02-06T11:16:02.767Z,104272.44
2023-02-06T11:18:40.773Z,104268.84
2023-02-06T11:21:09.804Z,104266.63
2023-02-06T11:23:36.568Z,104261.09
2023-02-06T11:26:23.262Z,104251.91
2023-02-06T11:28:52.713Z,104247.53
2023-02-06T11:31:21.960Z,104250.69
2023-02-06T11:33:51.868Z,104246.91
2023-02-06T11:36:31.573Z,104248.50
2023-02-06T11:39:01.451Z,104243.50
2023-02-06T11:41:29.295Z,104232.66
2023-02-06T11:44:06.280Z,104228.44
2023-02-06T11:46:36.943Z,104234.94
2023-02-06T11:49:25.039Z,104227.69
2023-02-06T11:51:59.753Z,104229.31
2023-02-06T11:54:35.980Z,104220.69
2023-02-06T11:57:18.360Z,104214.53
2023-02-06T12:00:18.554Z,104220.78
2023-02-06T12:02:52.051Z,104213.28
2023-02-06T12:05:20.301Z,104213.53
2023-02-06T12:08:02.822Z,104205.41
2023-02-06T12:10:34.159Z,104202.09
2023-02-06T12:13:16.016Z,104199.56
2023-02-06T12:15:48.164Z,104205.00
2023-02-06T12:18:25.225Z,104198.78
2023-02-06T12:21:00.144Z,104200.88
2023-02-06T12:24:05.197Z,104204.09
2023-02-06T12:26:35.342Z,104211.88
2023-02-06T12:29:17.118Z,104206.31
2023-02-06T12:31:50.599Z,104206.06
2023-02-06T12:34:20.124Z,104200.94
2023-02-06T12:37:00.286Z,104202.19
2023-02-06T12:39:33.299Z,104199.94
2023-02-06T12:42:41.376Z,104188.81
2023-02-06T12:45:37.761Z,104186.75
2023-02-06T12:48:16.992Z,104181.53
2023-02-06T12:50:49.086Z,104178.56
2023-02-06T12:53:20.960Z,104176.09
2023-02-06T12:56:01.738Z,104173.03
2023-02-06T12:58:37.206Z,104173.31
2023-02-06T13:01:30.999Z,104167.03
2023-02-06T13:04:04.363Z,104168.50
2023-02-06T13:06:42.836Z,104162.47
2023-02-06T13:09:20.751Z,104155.81
2023-02-06T13:11:47.622Z,104144.63
2023-02-06T13:14:19.045Z,104135.91
2023-02-06T13:16:50.105Z,104147.03
2023-02-06T13:19:41.719Z,104146.41
2023-02-06T13:22:08.077Z,104136.94
2023-02-06T13:24:35.752Z,104124.69
2023-02-06T13:27:24.195Z,104120.25
2023-02-06T13:29:54.019Z,104123.75
2023-02-06T13:32:30.130Z,104118.47
2023-02-06T13:35:06.226Z,104114.69
2023-02-06T13:37:39.916Z,104117.94
2023-02-06T13:40:30.586Z,104111.16
2023-02-06T13:43:18.786Z,104120.03
2023-02-06T13:46:05.184Z,104114.13
2023-02-06T13:48:52.963Z,104122.09
2023-02-06T13:51:44.105Z,104116.06
2023-02-06T13:54:22.728Z,104110.69
2023-02-06T13:57:04.615Z,104106.25
2023-02-06T14:00:18.335Z,104114.75
2023-02-06T14:02:48.884Z,104112.03
2023-02-06T14:05:44.632Z,104117.22
2023-02-06T14:08:24.639Z,104113.03
2023-02-06T14:11:29.416Z,104115.72
2023-02-06T14:14:17.638Z,104115.69
2023-02-06T14:17:15.031Z,104117.31
2023-02-06T14:20:10.626Z,104114.63
2023-02-06T14:22:44.599Z,104102.56
2023-02-06T14:25:48.933Z,104113.78
2023-02-06T14:28:18.367Z,104109.22
2023-02-06T14:30:54.654Z,104112.53
2023-02-06T14:33:42.509Z,104106.25
2023-02-06T14:36:17.852Z,104105.28
2023-02-06T14:38:55.272Z,104103.53
2023-02-06T14:41:21.946Z,104102.75
2023-02-06T14:43:50.823Z,104100.34
2023-02-06T14:46:19.567Z,104104.81
2023-02-06T14:48:51.795Z,104102.38
2023-02-06T14:51:21.616Z,104110.22
2023-02-06T14:53:54.978Z,104110.22
2023-02-06T14:56:33.652Z,104109.41
2023-02-06T14:59:17.878Z,104118.78
2023-02-06T15:01:51.115Z,104121.16
2023-02-06T15:04:25.976Z,104119.19
2023-02-06T15:06:54.050Z,104113.03
2023-02-06T15:09:38.924Z,104112.13
2023-02-06T15:12:24.899Z,104117.28
2023-02-06T15:14:53.938Z,104121.47
2023-02-06T15:17:22.389Z,104121.44
2023-02-06T15:19:49.297Z,104114.53
2023-02-06T15:22:35.570Z,104117.19
2023-02-06T15:25:36.496Z,104118.00
2023-02-06T15:28:08.402Z,104116.19
2023-02-06T15:30:37.518Z,104117.09
2023-02-06T15:33:10.004Z,104113.66
2023-02-06T15:35:40.149Z,104114.53
2023-02-06T15:38:15.148Z,104110.19
2023-02-06T15:40:45.620Z,104114.50
2023-02-06T15:43:19.986Z,104117.03
2023-02-06T15:45:48.730Z,104113.53
2023-02-06T15:48:24.154Z,104106.56
2023-02-06T15:51:03.576Z,104109.09
2023-02-06T15:53:34.366Z,104102.94
2023-02-06T15:56:02.790Z,104108.00
2023-02-06T15:58:32.295Z,104110.50
2023-02-06T16:00:59.680Z,104107.78
2023-02-06T16:03:28.188Z,104102.56
2023-02-06T16:05:56.457Z,104111.16
2023-02-06T16:08:35.291Z,104100.91
2023-02-06T16:11:28.737Z,104107.03
2023-02-06T16:13:55.276Z,104103.50
2023-02-06T16:16:24.070Z,104105.16
2023-02-06T16:18:52.117Z,104106.81
2023-02-06T16:21:18.818Z,104115.34
2023-02-06T16:24:03.203Z,104108.38
2023-02-06T16:26:32.619Z,104118.72
2023-02-06T16:29:14.769Z,104110.09
2023-02-06T16:31:44.310Z,104108.25
2023-02-06T16:34:32.392Z,104108.22
2023-02-06T16:36:58.809Z,104107.28
2023-02-06T16:39:25.350Z,104111.50
2023-02-06T16:41:53.713Z,104115.69
2023-02-06T16:44:20.618Z,104118.16
2023-02-06T16:46:47.044Z,104119.84
2023-02-06T16:49:16.707Z,104133.66
2023-02-06T16:51:44.284Z,104127.63
2023-02-06T16:54:25.507Z,104139.78
2023-02-06T16:56:54.333Z,104138.09
2023-02-06T16:59:20.934Z,104142.47
2023-02-06T17:01:47.344Z,104138.22
2023-02-06T17:04:13.920Z,104137.34
2023-02-06T17:06:40.886Z,104139.03
2023-02-06T17:09:10.910Z,104147.66
2023-02-06T17:11:37.677Z,104152.78
2023-02-06T17:14:04.560Z,104149.31
2023-02-06T17:16:31.890Z,104151.03
2023-02-06T17:18:58.571Z,104145.81
2023-02-06T17:21:25.199Z,104142.34
2023-02-06T17:23:51.895Z,104143.19
2023-02-06T17:26:22.924Z,104143.88
2023-02-06T17:28:50.050Z,104134.22
2023-02-06T17:31:16.969Z,104137.53
2023-02-06T17:33:43.514Z,104128.81
2023-02-06T17:36:16.308Z,104125.41
2023-02-06T17:38:43.422Z,104134.91
2023-02-06T17:41:09.868Z,104131.50
2023-02-06T17:43:37.363Z,104134.81
2023-02-06T17:46:05.276Z,104123.47
2023-02-06T17:48:36.351Z,104124.16
2023-02-06T17:51:04.342Z,104127.47
2023-02-06T17:53:30.762Z,104129.00
2023-02-06T17:55:57.405Z,104127.06
2023-02-06T17:58:23.970Z,104129.53
2023-02-06T18:00:50.475Z,104122.47
2023-02-06T18:03:18.257Z,104126.66
2023-02-06T18:05:45.297Z,104127.38
2023-02-06T18:08:12.227Z,104125.56
2023-02-06T18:10:39.303Z,104128.84
2023-02-06T18:13:05.847Z,104135.69
2023-02-06T18:15:32.341Z,104128.69
2023-02-06T18:17:59.531Z,104129.56
2023-02-06T18:20:26.312Z,104122.63
2023-02-06T18:22:52.759Z,104121.72
2023-02-06T18:25:19.225Z,104125.16
2023-02-06T18:27:46.028Z,104123.28
2023-02-06T18:30:14.508Z,104120.59
2023-02-06T18:32:41.413Z,104112.72
2023-02-06T18:35:09.015Z,104108.22
2023-02-06T18:37:35.772Z,104112.38
2023-02-06T18:40:02.725Z,104112.34
2023-02-06T18:42:47.729Z,104106.28
2023-02-06T18:45:14.210Z,104101.88
2023-02-06T18:47:42.347Z,104098.41
2023-02-06T18:50:10.426Z,104101.72
2023-02-06T18:52:36.950Z,104098.16
2023-02-06T18:55:03.579Z,104103.25
2023-02-06T18:57:30.075Z,104092.78
2023-02-06T18:59:56.480Z,104095.31
2023-02-06T19:02:22.996Z,104095.25
2023-02-06T19:04:49.659Z,104093.38
2023-02-06T19:07:16.538Z,104085.53
2023-02-06T19:09:42.949Z,104085.47
2023-02-06T19:12:09.377Z,104082.81
2023-02-06T19:14:36.429Z,104076.69
2023-02-06T19:17:02.921Z,104077.50
2023-02-06T19:19:29.368Z,104079.97
2023-02-06T19:21:56.553Z,104074.69
2023-02-06T19:24:23.401Z,104073.78
2023-02-06T19:26:49.923Z,104077.09
2023-02-06T19:29:33.584Z,104079.59
2023-02-06T19:32:03.093Z,104070.91
2023-02-06T19:34:29.529Z,104075.09
2023-02-06T19:36:55.982Z,104071.59
2023-02-06T19:39:22.318Z,104074.09
2023-02-06T19:41:48.694Z,104075.75
2023-02-06T19:44:15.244Z,104073.97
2023-02-06T19:46:41.660Z,104077.28
2023-02-06T19:49:08.781Z,104078.94
2023-02-06T19:51:39.644Z,104079.69
2023-02-06T19:54:06.643Z,104080.38
2023-02-06T19:56:39.785Z,104088.09
2023-02-06T19:59:17.946Z,104082.00
2023-02-06T20:01:50.202Z,104087.84
2023-02-06T20:04:17.719Z,104082.44
2023-02-06T20:06:44.685Z,104080.59
2023-02-06T20:09:14.975Z,104076.25
2023-02-06T20:11:42.802Z,104079.53
2023-02-06T20:14:10.478Z,104081.13
2023-02-06T20:16:39.043Z,104074.19
2023-02-06T20:19:18.657Z,104071.63
2023-02-06T20:21:49.919Z,104073.88
2023-02-06T20:24:28.160Z,104074.59
2023-02-06T20:26:58.371Z,104080.50
2023-02-06T20:29:34.412Z,104070.19
2023-02-06T20:32:01.591Z,104071.91
2023-02-06T20:34:28.751Z,104070.94
2023-02-06T20:36:56.117Z,104071.69
2023-02-06T20:39:23.573Z,104071.69
2023-02-06T20:41:50.677Z,104076.72
2023-02-06T20:44:18.076Z,104074.06
2023-02-06T20:46:44.612Z,104067.06
2023-02-06T20:49:22.692Z,104061.81
2023-02-06T20:51:50.050Z,104066.03
2023-02-06T20:54:17.974Z,104054.00
2023-02-06T20:56:44.875Z,104056.47
2023-02-06T20:59:16.449Z,104061.59
2023-02-06T21:01:43.089Z,104052.94
2023-02-06T21:04:11.970Z,104059.66
2023-02-06T21:06:39.123Z,104062.16
2023-02-06T21:09:06.807Z,104067.25
2023-02-06T21:11:45.714Z,104065.47
2023-02-06T21:14:13.410Z,104072.25
2023-02-06T21:16:40.345Z,104073.06
2023-02-06T21:19:09.117Z,104063.53
2023-02-06T21:21:37.108Z,104063.47
2023-02-06T21:24:04.303Z,104074.47
2023-02-06T21:26:31.630Z,104069.19
2023-02-06T21:28:59.641Z,104061.41
2023-02-06T21:31:37.544Z,104052.78
2023-02-06T21:34:12.350Z,104049.31
2023-02-06T21:36:39.665Z,104051.75
2023-02-06T21:39:07.329Z,104057.75
2023-02-06T21:41:33.920Z,104061.97
2023-02-06T21:44:00.457Z,104065.28
2023-02-06T21:46:29.141Z,104064.34
2023-02-06T21:48:55.625Z,104066.78
2023-02-06T21:51:23.068Z,104067.56
2023-02-06T21:53:49.865Z,104058.91
2023-02-06T21:56:22.219Z,104059.69
2023-02-06T21:58:49.337Z,104059.56
2023-02-06T22:01:34.657Z,104049.28
2023-02-06T22:04:02.648Z,104052.59
2023-02-06T22:06:29.627Z,104055.91
2023-02-06T22:09:02.537Z,104060.94
2023-02-06T22:11:32.442Z,104062.47
2023-02-06T22:14:05.963Z,104063.38
2023-02-06T22:16:33.069Z,104071.81
2023-02-06T22:19:00.733Z,104069.16
2023-02-06T22:21:29.297Z,104074.28
2023-02-06T22:23:58.845Z,104077.69
2023-02-06T22:26:26.616Z,104070.69
2023-02-06T22:28:53.023Z,104069.69
2023-02-06T22:31:24.487Z,104068.00
2023-02-06T22:33:52.040Z,104067.94
2023-02-06T22:36:21.249Z,104066.84
2023-02-06T22:38:52.163Z,104066.75
2023-02-06T22:41:18.621Z,104064.06
2023-02-06T22:43:46.041Z,104062.31
2023-02-06T22:46:26.286Z,104061.44
2023-02-06T22:48:53.468Z,104065.59
2023-02-06T22:51:20.505Z,104068.06
2023-02-06T22:53:46.944Z,104070.56
2023-02-06T22:56:29.436Z,104073.94
2023-02-06T22:59:04.346Z,104074.75
2023-02-06T23:01:33.693Z,104066.91
2023-02-06T23:04:01.470Z,104068.47
2023-02-06T23:06:29.261Z,104067.53
2023-02-06T23:08:56.711Z,104056.31
2023-02-06T23:11:23.888Z,104058.81
2023-02-06T23:13:57.247Z,104060.28
2023-02-06T23:16:24.782Z,104072.16
2023-02-06T23:18:51.854Z,104068.69
2023-02-06T23:21:20.821Z,104068.69
2023-02-06T23:23:48.041Z,104058.41
2023-02-06T23:26:16.719Z,104066.09
2023-02-06T23:28:43.572Z,104064.25
2023-02-06T23:31:11.501Z,104070.16
2023-02-06T23:33:38.482Z,104078.69
2023-02-06T23:36:16.670Z,104075.19
2023-02-06T23:38:44.617Z,104082.72
2023-02-06T23:41:20.360Z,104078.44
2023-02-06T23:43:51.541Z,104070.63
2023-02-06T23:46:19.854Z,104079.94
2023-02-06T23:48:47.621Z,104068.81
2023-02-06T23:51:14.388Z,104062.81
2023-02-06T23:53:41.306Z,104073.00
2023-02-06T23:56:16.821Z,104076.44
2023-02-06T23:58:43.662Z,104075.47
